Terminal Aerodrome Forecast
Issued by NWS Cleveland, OH

Home | Current Version | Previous Version | Graphics & Text | Print | Product List | Glossary Off
Versions: 1 2 3 4 5 6 7 8 9 10 11 12 13 14 15 16 17 18 19 20 21 22 23 24 25 26 27 28

671
FTUS41 KCLE 091048 AAD
TAFCLE
TAF AMD
KCLE 091048Z 0911/1012 26014G20KT P6SM -SN OVC018
      TEMPO 0911/0914 3SM -SHSN
     FM092200 27012KT 3SM -SHSN SCT012 OVC020
     FM100900 25010KT 6SM -SN SCT015 OVC020=

USA.gov is the U.S. government's official web portal to all federal, state and local government web resources and services.